sensor_id;sensor_type;location;lat;lon;timestamp;pressure;altitude;pressure_sealevel;temperature;humidity
49945;BME280;35838;49.134;9.212;2022-07-23T00:01:33;99688.00;;;26.25;48.08
49945;BME280;35838;49.134;9.212;2022-07-23T00:03:07;99689.50;;;26.30;48.01
49945;BME280;35838;49.134;9.212;2022-07-23T00:04:39;99686.72;;;26.31;47.93
49945;BME280;35838;49.134;9.212;2022-07-23T00:06:13;99687.56;;;26.32;48.00
49945;BME280;35838;49.134;9.212;2022-07-23T00:07:44;99685.06;;;26.17;48.30
49945;BME280;35838;49.134;9.212;2022-07-23T00:09:18;99684.63;;;26.23;47.99
49945;BME280;35838;49.134;9.212;2022-07-23T00:10:52;99675.38;;;26.16;48.24
49945;BME280;35838;49.134;9.212;2022-07-23T00:12:28;99674.22;;;26.20;48.24
49945;BME280;35838;49.134;9.212;2022-07-23T00:14:02;99685.69;;;26.21;48.16
49945;BME280;35838;49.134;9.212;2022-07-23T00:15:37;99680.38;;;26.08;48.09
49945;BME280;35838;49.134;9.212;2022-07-23T00:17:11;99674.31;;;26.06;48.05
49945;BME280;35838;49.134;9.212;2022-07-23T00:18:42;99671.03;;;26.15;48.00
49945;BME280;35838;49.134;9.212;2022-07-23T00:20:17;99662.09;;;26.16;48.02
49945;BME280;35838;49.134;9.212;2022-07-23T00:21:50;99659.97;;;26.21;48.53
49945;BME280;35838;49.134;9.212;2022-07-23T00:23:24;99658.25;;;26.20;47.96
49945;BME280;35838;49.134;9.212;2022-07-23T00:24:59;99659.34;;;26.18;47.91
49945;BME280;35838;49.134;9.212;2022-07-23T00:26:34;99659.00;;;26.22;48.06
49945;BME280;35838;49.134;9.212;2022-07-23T00:28:10;99673.75;;;26.26;48.57
49945;BME280;35838;49.134;9.212;2022-07-23T00:29:44;99672.75;;;26.03;48.21
49945;BME280;35838;49.134;9.212;2022-07-23T00:31:18;99677.09;;;26.04;48.32
49945;BME280;35838;49.134;9.212;2022-07-23T00:32:54;99681.91;;;26.12;48.06
49945;BME280;35838;49.134;9.212;2022-07-23T00:34:29;99672.66;;;26.05;48.03
49945;BME280;35838;49.134;9.212;2022-07-23T00:36:04;99684.78;;;26.09;47.58
49945;BME280;35838;49.134;9.212;2022-07-23T00:37:38;99677.44;;;26.00;47.67
49945;BME280;35838;49.134;9.212;2022-07-23T00:39:12;99674.50;;;25.91;47.56
49945;BME280;35838;49.134;9.212;2022-07-23T00:40:46;99670.13;;;25.90;47.96
49945;BME280;35838;49.134;9.212;2022-07-23T00:42:20;99661.19;;;25.91;47.68
49945;BME280;35838;49.134;9.212;2022-07-23T00:44:14;99666.44;;;25.80;48.18
49945;BME280;35838;49.134;9.212;2022-07-23T00:45:48;99658.78;;;25.75;48.42
49945;BME280;35838;49.134;9.212;2022-07-23T00:47:22;99657.28;;;25.84;48.56
49945;BME280;35838;49.134;9.212;2022-07-23T00:48:56;99662.16;;;25.90;48.33
49945;BME280;35838;49.134;9.212;2022-07-23T00:50:30;99668.22;;;25.92;48.16
49945;BME280;35838;49.134;9.212;2022-07-23T00:52:05;99659.81;;;25.86;48.41
49945;BME280;35838;49.134;9.212;2022-07-23T00:53:39;99665.56;;;25.92;48.25
49945;BME280;35838;49.134;9.212;2022-07-23T00:55:13;99666.06;;;25.97;48.02
49945;BME280;35838;49.134;9.212;2022-07-23T00:56:47;99654.25;;;26.02;48.14
49945;BME280;35838;49.134;9.212;2022-07-23T00:58:21;99658.53;;;25.91;47.58
49945;BME280;35838;49.134;9.212;2022-07-23T00:59:58;99657.91;;;25.88;47.64
49945;BME280;35838;49.134;9.212;2022-07-23T01:01:33;99656.84;;;25.90;48.21
49945;BME280;35838;49.134;9.212;2022-07-23T01:03:07;99667.25;;;25.93;47.80
49945;BME280;35838;49.134;9.212;2022-07-23T01:04:41;99662.34;;;26.00;47.54
49945;BME280;35838;49.134;9.212;2022-07-23T01:06:15;99665.84;;;26.01;47.03
49945;BME280;35838;49.134;9.212;2022-07-23T01:07:49;99663.06;;;26.02;47.18
49945;BME280;35838;49.134;9.212;2022-07-23T01:09:24;99661.50;;;26.00;46.96
49945;BME280;35838;49.134;9.212;2022-07-23T01:10:58;99663.03;;;25.91;46.56
